Time;durP1;ratioP1;P1;durP2;ratioP2;P2;SDS_P1;SDS_P2;PMS_P1;PMS_P2;Temp;Humidity;BMP_temperature;BMP_pressure;BME280_temperature;BME280_humidity;BME280_pressure;Samples;Min_cycle;Max_cycle;Signal;HPM_P1;HPM_P2
2023/06/02 00:01:31;;;;;;;1.10;1.10;;;17.90;99.90;;;;;;5070006;28;20227;-64
2023/06/02 00:03:59;;;;;;;1.30;1.30;;;17.90;99.90;;;;;;5070474;28;20195;-65
2023/06/02 00:06:30;;;;;;;1.20;1.20;;;17.80;99.90;;;;;;5070312;28;20207;-63
2023/06/02 00:08:58;;;;;;;0.98;0.98;;;17.70;99.90;;;;;;5070123;28;20191;-63
2023/06/02 00:11:26;;;;;;;1.20;1.10;;;17.70;99.90;;;;;;5069887;28;20698;-63
2023/06/02 00:13:52;;;;;;;1.08;1.08;;;17.60;99.90;;;;;;5070532;28;20283;-63
2023/06/02 00:16:21;;;;;;;1.20;1.20;;;17.60;99.90;;;;;;5070589;28;20238;-63
2023/06/02 00:18:48;;;;;;;1.20;1.20;;;17.50;99.90;;;;;;5070047;28;20242;-63
2023/06/02 00:21:18;;;;;;;1.20;1.20;;;17.60;99.90;;;;;;5069783;28;20235;-64
2023/06/02 00:23:46;;;;;;;1.20;1.10;;;17.50;99.90;;;;;;5074725;28;20203;-64
2023/06/02 00:26:13;;;;;;;1.38;1.27;;;17.50;99.90;;;;;;5076059;28;20674;-63
2023/06/02 00:28:40;;;;;;;1.35;1.30;;;17.50;99.90;;;;;;5070179;28;20242;-64
2023/06/02 00:31:07;;;;;;;1.33;1.23;;;17.50;99.90;;;;;;5069389;28;20219;-64
2023/06/02 00:33:35;;;;;;;1.38;1.38;;;17.40;99.90;;;;;;5074093;28;20294;-64
2023/06/02 00:36:02;;;;;;;1.02;1.02;;;17.30;99.90;;;;;;5074419;28;20288;-64
2023/06/02 00:38:29;;;;;;;1.20;1.20;;;17.30;99.90;;;;;;5074663;28;20257;-64
2023/06/02 00:40:56;;;;;;;1.23;1.23;;;17.20;99.90;;;;;;5073621;28;20648;-64
2023/06/02 00:43:23;;;;;;;1.30;1.20;;;17.20;99.90;;;;;;5075027;28;20245;-64
2023/06/02 00:45:50;;;;;;;1.30;1.30;;;17.20;99.90;;;;;;5074507;28;20215;-65
2023/06/02 00:48:17;;;;;;;1.30;1.20;;;17.10;99.90;;;;;;5081533;28;20184;-65
2023/06/02 00:50:45;;;;;;;1.42;1.33;;;17.10;99.90;;;;;;5083907;28;20231;-64
2023/06/02 00:53:12;;;;;;;1.45;1.45;;;17.10;99.90;;;;;;5082599;28;20291;-66
2023/06/02 00:55:39;;;;;;;1.23;1.23;;;17.00;99.90;;;;;;5084706;28;20207;-64
2023/06/02 00:58:07;;;;;;;1.50;1.40;;;17.00;99.90;;;;;;5083153;28;20207;-65
2023/06/02 01:00:38;;;;;;;1.40;1.33;;;17.00;99.90;;;;;;5079201;28;20235;-63
2023/06/02 01:03:07;;;;;;;1.20;1.20;;;17.00;99.90;;;;;;5079965;28;20198;-63
2023/06/02 01:05:35;;;;;;;1.35;1.35;;;17.10;99.90;;;;;;5080794;28;20211;-64
2023/06/02 01:08:07;;;;;;;1.20;1.20;;;17.00;99.90;;;;;;5080302;28;20206;-63
2023/06/02 01:10:36;;;;;;;1.60;1.50;;;16.90;99.90;;;;;;5075373;28;20239;-64
2023/06/02 01:13:03;;;;;;;1.50;1.50;;;17.10;99.90;;;;;;5070165;28;20493;-64
2023/06/02 01:15:31;;;;;;;1.80;1.70;;;16.90;99.90;;;;;;5054727;28;20206;-64
2023/06/02 01:17:59;;;;;;;1.55;1.55;;;16.80;99.90;;;;;;5054658;28;20670;-64
2023/06/02 01:20:28;;;;;;;1.80;1.70;;;16.80;99.90;;;;;;5052595;28;20234;-62
2023/06/02 01:23:04;;;;;;;1.45;1.45;;;16.70;99.90;;;;;;5053725;28;20215;-64
2023/06/02 01:25:32;;;;;;;1.58;1.48;;;16.60;99.90;;;;;;5049876;28;20204;-65
2023/06/02 01:27:59;;;;;;;1.70;1.60;;;16.50;99.90;;;;;;5055485;28;20318;-68
2023/06/02 01:30:27;;;;;;;1.55;1.50;;;16.50;99.90;;;;;;5072136;28;20322;-63
2023/06/02 01:33:05;;;;;;;1.52;1.42;;;16.40;99.90;;;;;;5072713;28;20199;-63
2023/06/02 01:35:35;;;;;;;1.20;1.20;;;16.40;99.90;;;;;;5073186;28;20567;-64
2023/06/02 01:38:03;;;;;;;1.58;1.48;;;16.40;99.90;;;;;;5073053;28;20192;-63
2023/06/02 01:40:32;;;;;;;1.58;1.48;;;16.40;99.90;;;;;;5071702;28;20231;-63
2023/06/02 01:43:00;;;;;;;1.70;1.60;;;16.30;99.90;;;;;;5071728;28;20573;-65
2023/06/02 01:45:30;;;;;;;1.80;1.70;;;16.30;99.90;;;;;;5072378;28;20211;-63
2023/06/02 01:48:04;;;;;;;1.90;1.80;;;16.20;99.90;;;;;;5072603;28;20649;-64
2023/06/02 01:50:32;;;;;;;1.52;1.50;;;16.20;99.90;;;;;;5072052;28;20227;-64
2023/06/02 01:52:58;;;;;;;1.90;1.80;;;16.10;99.90;;;;;;5072785;28;20199;-64
2023/06/02 01:55:26;;;;;;;1.83;1.73;;;16.10;99.90;;;;;;5072802;28;20559;-64
2023/06/02 01:57:54;;;;;;;1.95;1.70;;;16.10;99.90;;;;;;5072309;28;20207;-63
2023/06/02 02:00:21;;;;;;;1.50;1.50;;;16.00;99.90;;;;;;5071280;28;20234;-63
2023/06/02 02:02:51;;;;;;;1.42;1.42;;;15.90;99.90;;;;;;5072230;28;20311;-64
2023/06/02 02:05:18;;;;;;;1.30;1.30;;;15.90;99.90;;;;;;5072270;28;20214;-63
2023/06/02 02:07:46;;;;;;;1.58;1.48;;;15.90;99.90;;;;;;5072126;28;20211;-64
2023/06/02 02:10:14;;;;;;;1.60;1.50;;;15.80;99.90;;;;;;5071498;28;20249;-64
2023/06/02 02:12:41;;;;;;;1.60;1.50;;;15.80;99.90;;;;;;5071945;28;20211;-64
2023/06/02 02:15:10;;;;;;;1.40;1.40;;;15.80;99.90;;;;;;5071751;28;20205;-62
2023/06/02 02:17:44;;;;;;;1.90;1.70;;;15.80;99.90;;;;;;5072023;28;20207;-63
2023/06/02 02:20:16;;;;;;;1.70;1.60;;;15.80;99.90;;;;;;5070872;28;20317;-64
2023/06/02 02:22:43;;;;;;;1.75;1.65;;;15.70;99.90;;;;;;5072039;28;20191;-64
2023/06/02 02:25:10;;;;;;;1.52;1.50;;;15.70;99.90;;;;;;5071432;28;20203;-65
2023/06/02 02:27:38;;;;;;;1.70;1.60;;;15.70;99.90;;;;;;5071489;28;20214;-64
2023/06/02 02:30:06;;;;;;;1.75;1.65;;;15.60;99.90;;;;;;5071100;28;20233;-64
2023/06/02 02:32:36;;;;;;;1.85;1.75;;;15.60;99.90;;;;;;5071229;28;20285;-64
2023/06/02 02:35:04;;;;;;;1.90;1.80;;;15.60;99.90;;;;;;5071550;28;20203;-64
2023/06/02 02:37:31;;;;;;;1.20;1.20;;;15.50;99.90;;;;;;5075904;28;20562;-63
2023/06/02 02:39:58;;;;;;;1.50;1.40;;;15.40;99.90;;;;;;5071940;28;20231;-64
2023/06/02 02:42:25;;;;;;;1.50;1.50;;;15.30;99.90;;;;;;5075950;28;20266;-65
2023/06/02 02:44:52;;;;;;;1.38;1.38;;;15.30;99.90;;;;;;5080660;28;20203;-64
2023/06/02 02:47:20;;;;;;;1.38;1.38;;;15.30;99.90;;;;;;5072247;28;20219;-63
2023/06/02 02:49:48;;;;;;;1.58;1.50;;;15.30;99.90;;;;;;5070996;28;20235;-64
2023/06/02 02:52:15;;;;;;;1.40;1.40;;;15.30;99.90;;;;;;5071570;28;20682;-64
2023/06/02 02:54:41;;;;;;;1.30;1.30;;;15.30;99.90;;;;;;5071427;28;20203;-63
2023/06/02 02:57:08;;;;;;;1.60;1.50;;;15.20;99.90;;;;;;5071828;28;20213;-64
2023/06/02 02:59:36;;;;;;;2.25;1.60;;;15.20;99.90;;;;;;5071092;28;20700;-64
2023/06/02 03:02:03;;;;;;;1.48;1.38;;;15.20;99.90;;;;;;5071828;28;20234;-64
2023/06/02 03:04:32;;;;;;;1.65;1.58;;;15.20;99.90;;;;;;5071786;28;20271;-64
2023/06/02 03:07:01;;;;;;;1.50;1.40;;;15.20;99.90;;;;;;5072371;28;20214;-63
2023/06/02 03:09:28;;;;;;;1.20;1.20;;;15.20;99.90;;;;;;5074399;28;20207;-63
2023/06/02 03:11:55;;;;;;;1.63;1.52;;;15.20;99.90;;;;;;5074633;28;20204;-64
2023/06/02 03:14:22;;;;;;;1.27;1.20;;;15.20;99.90;;;;;;5073774;28;20203;-64
2023/06/02 03:16:50;;;;;;;1.42;1.33;;;15.20;99.90;;;;;;5072312;28;20318;-64
2023/06/02 03:19:17;;;;;;;1.58;1.48;;;15.20;99.90;;;;;;5070471;28;20230;-63
2023/06/02 03:21:44;;;;;;;1.60;1.50;;;15.20;99.90;;;;;;5070984;28;20234;-64
2023/06/02 03:24:14;;;;;;;1.30;1.30;;;15.30;99.90;;;;;;5070996;28;20226;-63
2023/06/02 03:26:42;;;;;;;1.38;1.38;;;15.20;99.90;;;;;;5070892;28;20209;-63
2023/06/02 03:29:09;;;;;;;1.30;1.30;;;15.20;99.90;;;;;;5070039;28;20213;-64
2023/06/02 03:31:37;;;;;;;1.85;1.75;;;15.10;99.90;;;;;;5070770;28;20226;-64
2023/06/02 03:34:04;;;;;;;1.65;1.55;;;15.10;99.90;;;;;;5071025;28;20272;-63
2023/06/02 03:36:34;;;;;;;1.42;1.42;;;15.10;99.90;;;;;;5071552;28;20207;-63
2023/06/02 03:39:02;;;;;;;1.80;1.70;;;15.00;99.90;;;;;;5071106;28;20187;-63
2023/06/02 03:41:30;;;;;;;1.55;1.45;;;14.90;99.90;;;;;;5070611;28;20325;-64
2023/06/02 03:43:57;;;;;;;1.42;1.42;;;14.90;99.90;;;;;;5070702;28;20211;-63
2023/06/02 03:46:24;;;;;;;2.03;1.60;;;15.00;99.90;;;;;;5071533;28;20342;-64
2023/06/02 03:48:51;;;;;;;1.75;1.63;;;15.00;99.90;;;;;;5071796;28;20203;-63
2023/06/02 03:51:17;;;;;;;1.60;1.50;;;15.00;99.90;;;;;;5069978;28;20701;-64
2023/06/02 03:53:44;;;;;;;1.80;1.70;;;15.00;99.90;;;;;;5070995;28;20208;-63
2023/06/02 03:56:12;;;;;;;1.70;1.60;;;14.90;99.90;;;;;;5070568;28;20675;-64
2023/06/02 03:58:40;;;;;;;1.90;1.80;;;14.90;99.90;;;;;;5071352;28;20301;-64
2023/06/02 04:01:08;;;;;;;1.80;1.70;;;15.00;99.90;;;;;;5070334;28;20223;-64
2023/06/02 04:03:36;;;;;;;1.73;1.67;;;15.00;99.90;;;;;;5071049;28;20292;-65
2023/06/02 04:06:03;;;;;;;1.73;1.63;;;15.00;99.90;;;;;;5071520;28;20290;-65
2023/06/02 04:08:30;;;;;;;1.80;1.70;;;15.00;99.90;;;;;;5074621;28;20202;-65
2023/06/02 04:10:57;;;;;;;1.70;1.60;;;14.90;99.90;;;;;;5074040;28;20230;-65
2023/06/02 04:13:24;;;;;;;1.73;1.63;;;14.90;99.90;;;;;;5074542;28;20294;-65
2023/06/02 04:15:52;;;;;;;1.33;1.33;;;14.90;99.90;;;;;;5074896;28;20235;-64
2023/06/02 04:18:19;;;;;;;1.83;1.73;;;14.80;99.90;;;;;;5075522;28;20275;-65
2023/06/02 04:20:46;;;;;;;1.67;1.58;;;14.80;99.90;;;;;;5077571;28;20233;-64
2023/06/02 04:23:12;;;;;;;1.83;1.73;;;14.70;99.90;;;;;;5077363;28;20253;-66
2023/06/02 04:25:39;;;;;;;1.60;1.50;;;14.60;99.90;;;;;;5079680;28;20252;-65
2023/06/02 04:28:07;;;;;;;1.70;1.60;;;14.60;99.90;;;;;;5078904;28;20300;-64
2023/06/02 04:30:36;;;;;;;1.70;1.60;;;14.60;99.90;;;;;;5078003;28;20254;-64
2023/06/02 04:33:05;;;;;;;1.80;1.70;;;14.60;99.90;;;;;;5078116;28;20210;-64
2023/06/02 04:35:31;;;;;;;1.33;1.33;;;14.70;99.90;;;;;;5075324;28;20207;-65
2023/06/02 04:37:58;;;;;;;1.73;1.63;;;14.70;99.90;;;;;;5074687;28;20208;-65
2023/06/02 04:40:25;;;;;;;1.63;1.58;;;14.70;99.90;;;;;;5073916;28;20318;-66
2023/06/02 04:42:52;;;;;;;1.65;1.55;;;14.70;99.90;;;;;;5074295;28;21063;-65
2023/06/02 04:45:20;;;;;;;1.73;1.60;;;14.70;99.90;;;;;;5073911;28;20289;-65
2023/06/02 04:47:47;;;;;;;2.15;2.05;;;14.70;99.90;;;;;;5073868;28;20207;-65
2023/06/02 04:50:16;;;;;;;1.73;1.63;;;14.80;99.90;;;;;;5073782;28;20223;-65
2023/06/02 04:52:43;;;;;;;1.70;1.60;;;14.90;99.90;;;;;;5076613;28;20210;-65
2023/06/02 04:55:11;;;;;;;2.00;1.88;;;15.00;99.90;;;;;;5080820;28;20237;-64
2023/06/02 04:57:39;;;;;;;1.70;1.60;;;15.10;99.90;;;;;;5074002;28;20207;-65
2023/06/02 05:00:07;;;;;;;1.50;1.50;;;15.20;99.90;;;;;;5072856;28;20227;-65
2023/06/02 05:02:34;;;;;;;1.77;1.67;;;15.20;99.90;;;;;;5074404;28;20270;-64
2023/06/02 05:05:02;;;;;;;1.90;1.80;;;15.30;99.90;;;;;;5074716;28;20200;-65
2023/06/02 05:07:30;;;;;;;4.40;4.10;;;15.30;99.90;;;;;;5080622;28;20698;-66
2023/06/02 05:09:57;;;;;;;2.15;2.05;;;15.50;99.90;;;;;;5079141;28;20322;-69
2023/06/02 05:12:25;;;;;;;1.90;1.80;;;15.60;99.90;;;;;;5074769;28;20252;-64
2023/06/02 05:14:53;;;;;;;1.80;1.70;;;15.70;99.90;;;;;;5079598;28;20256;-64
2023/06/02 05:17:23;;;;;;;1.98;1.85;;;15.90;99.90;;;;;;5074293;28;20265;-64
2023/06/02 05:19:50;;;;;;;2.03;1.92;;;16.20;99.90;;;;;;5072902;28;20333;-64
2023/06/02 05:22:17;;;;;;;2.55;2.08;;;16.30;99.90;;;;;;5071941;28;20253;-64
2023/06/02 05:24:45;;;;;;;1.85;1.75;;;16.40;99.90;;;;;;5072659;28;20207;-64
2023/06/02 05:27:12;;;;;;;2.10;2.00;;;16.60;99.90;;;;;;5071983;28;20792;-64
2023/06/02 05:29:39;;;;;;;2.10;2.00;;;16.70;99.90;;;;;;5071193;28;20213;-63
2023/06/02 05:32:07;;;;;;;2.17;2.08;;;16.70;99.90;;;;;;5071457;28;20204;-63
2023/06/02 05:34:34;;;;;;;2.10;2.00;;;16.80;99.90;;;;;;5072562;28;20207;-66
2023/06/02 05:37:02;;;;;;;2.15;2.05;;;17.00;99.90;;;;;;5074408;28;20235;-66
2023/06/02 05:39:29;;;;;;;2.20;2.10;;;17.10;99.90;;;;;;5080843;28;20262;-65
2023/06/02 05:41:57;;;;;;;2.20;2.10;;;17.30;99.90;;;;;;5083220;28;20295;-65
2023/06/02 05:44:24;;;;;;;2.13;2.03;;;17.40;99.90;;;;;;5085474;28;20270;-65
2023/06/02 05:46:50;;;;;;;2.10;2.00;;;17.60;99.90;;;;;;5081926;28;20265;-62
2023/06/02 05:49:17;;;;;;;1.80;1.70;;;18.00;99.90;;;;;;5082536;28;20724;-62
2023/06/02 05:51:44;;;;;;;2.25;2.15;;;18.70;99.90;;;;;;5073699;28;20243;-60
2023/06/02 05:54:11;;;;;;;2.10;1.90;;;19.30;99.90;;;;;;5073593;28;20190;-63
2023/06/02 05:56:38;;;;;;;2.25;2.10;;;19.60;99.90;;;;;;5074021;28;20207;-62
2023/06/02 05:59:08;;;;;;;2.20;2.10;;;19.80;99.90;;;;;;5072777;28;20207;-62
2023/06/02 06:01:35;;;;;;;2.20;2.00;;;19.90;99.90;;;;;;5073416;28;20292;-65
2023/06/02 06:04:02;;;;;;;2.03;1.92;;;19.90;99.90;;;;;;5073200;28;20217;-65
2023/06/02 06:06:29;;;;;;;2.08;1.98;;;19.40;99.90;;;;;;5073004;28;20207;-67
2023/06/02 06:08:56;;;;;;;2.28;2.08;;;19.20;99.90;;;;;;5072907;28;20203;-64
2023/06/02 06:11:25;;;;;;;2.70;2.50;;;19.10;99.90;;;;;;5072275;28;20318;-64
2023/06/02 06:13:52;;;;;;;2.40;2.30;;;19.10;99.90;;;;;;5072234;28;20575;-67
2023/06/02 06:16:21;;;;;;;2.25;2.15;;;19.10;99.90;;;;;;5072176;28;20203;-66
2023/06/02 06:18:47;;;;;;;2.00;1.90;;;19.00;99.90;;;;;;5073198;28;20207;-66
2023/06/02 06:21:14;;;;;;;2.80;2.60;;;18.90;99.90;;;;;;5072868;28;20230;-65
2023/06/02 06:23:41;;;;;;;1.90;1.80;;;19.10;99.90;;;;;;5073162;28;20208;-64
2023/06/02 06:26:08;;;;;;;2.10;2.00;;;19.00;99.90;;;;;;5072049;28;20656;-64
2023/06/02 06:28:35;;;;;;;2.40;2.30;;;19.00;99.90;;;;;;5072162;28;20223;-64
2023/06/02 06:31:02;;;;;;;1.85;1.75;;;18.90;99.90;;;;;;5071209;28;20227;-67
2023/06/02 06:33:30;;;;;;;2.10;2.00;;;18.80;99.90;;;;;;5072339;28;20286;-65
2023/06/02 06:35:57;;;;;;;2.00;1.90;;;18.80;99.90;;;;;;5072550;28;20281;-66
2023/06/02 06:38:24;;;;;;;2.38;2.22;;;19.10;99.90;;;;;;5072305;28;20217;-64
2023/06/02 06:40:51;;;;;;;2.00;1.90;;;19.30;99.90;;;;;;5071239;28;20310;-66
2023/06/02 06:43:17;;;;;;;2.10;2.00;;;19.20;99.90;;;;;;5071992;28;20241;-64
2023/06/02 06:45:44;;;;;;;1.63;1.52;;;19.10;99.90;;;;;;5071613;28;20630;-65
2023/06/02 06:48:11;;;;;;;1.80;1.70;;;19.20;99.90;;;;;;5072013;28;20267;-65
2023/06/02 06:50:39;;;;;;;1.77;1.67;;;19.30;99.90;;;;;;5071119;28;20262;-64
2023/06/02 06:53:06;;;;;;;1.85;1.75;;;19.20;99.90;;;;;;5071542;28;20627;-66
2023/06/02 06:55:33;;;;;;;1.70;1.60;;;19.20;99.90;;;;;;5071636;28;20207;-64
2023/06/02 06:58:00;;;;;;;1.83;1.73;;;19.20;99.90;;;;;;5071228;28;20209;-63
2023/06/02 07:00:27;;;;;;;1.88;1.77;;;19.10;99.90;;;;;;5071654;28;20223;-65
2023/06/02 07:02:54;;;;;;;1.80;1.70;;;19.10;99.90;;;;;;5071960;28;20830;-66
2023/06/02 07:05:21;;;;;;;2.08;1.98;;;19.20;99.90;;;;;;5071530;28;20238;-63
2023/06/02 07:07:50;;;;;;;1.83;1.73;;;19.30;99.90;;;;;;5071065;28;20212;-69
2023/06/02 07:10:17;;;;;;;2.10;1.90;;;19.40;99.90;;;;;;5071420;28;20229;-65
2023/06/02 07:12:44;;;;;;;1.60;1.50;;;19.30;99.90;;;;;;5072954;28;20199;-65
2023/06/02 07:15:12;;;;;;;1.90;1.80;;;19.40;99.90;;;;;;5073193;28;20203;-64
2023/06/02 07:17:40;;;;;;;2.08;1.95;;;19.20;99.90;;;;;;5078360;28;20268;-66
2023/06/02 07:20:08;;;;;;;1.77;1.67;;;19.20;99.90;;;;;;5071675;28;20244;-65
2023/06/02 07:22:35;;;;;;;1.90;1.80;;;19.10;99.90;;;;;;5070787;28;20765;-66
2023/06/02 07:25:03;;;;;;;1.70;1.60;;;19.10;99.90;;;;;;5065342;28;20574;-66
2023/06/02 07:27:30;;;;;;;1.70;1.60;;;19.10;99.90;;;;;;5060329;28;20204;-63
2023/06/02 07:29:57;;;;;;;1.70;1.60;;;19.10;99.90;;;;;;5055620;28;20269;-65
2023/06/02 07:32:24;;;;;;;1.80;1.70;;;19.10;99.90;;;;;;5051260;28;20200;-65
2023/06/02 07:34:51;;;;;;;1.90;1.65;;;19.30;99.90;;;;;;5051357;28;20308;-63
2023/06/02 07:37:18;;;;;;;1.80;1.70;;;19.40;99.90;;;;;;5051163;28;20252;-63
2023/06/02 07:39:45;;;;;;;2.17;2.00;;;19.50;99.90;;;;;;5053213;28;20200;-65
2023/06/02 07:42:13;;;;;;;1.80;1.70;;;19.40;99.90;;;;;;5060542;28;20216;-64
2023/06/02 07:44:40;;;;;;;1.80;1.70;;;19.20;99.90;;;;;;5056063;28;20204;-65
2023/06/02 07:47:07;;;;;;;1.73;1.63;;;19.20;99.90;;;;;;5060820;28;20209;-65
2023/06/02 07:49:34;;;;;;;2.13;1.92;;;19.20;99.90;;;;;;5067395;28;20876;-65
2023/06/02 07:52:02;;;;;;;1.75;1.70;;;19.30;99.90;;;;;;5069967;28;20235;-64
2023/06/02 07:54:28;;;;;;;1.77;1.67;;;19.40;99.90;;;;;;5066134;28;20204;-68
2023/06/02 07:56:55;;;;;;;1.65;1.55;;;19.40;99.90;;;;;;5069367;28;20192;-65
2023/06/02 07:59:24;;;;;;;4.47;1.90;;;19.50;99.90;;;;;;5063650;28;20638;-65
2023/06/02 08:01:51;;;;;;;1.70;1.60;;;19.60;99.90;;;;;;5056148;28;20231;-65
2023/06/02 08:04:18;;;;;;;1.70;1.60;;;19.80;99.90;;;;;;5057482;28;20677;-64
2023/06/02 08:06:45;;;;;;;1.42;1.42;;;19.60;99.90;;;;;;5056502;28;20204;-65
2023/06/02 08:09:12;;;;;;;1.70;1.60;;;19.70;99.90;;;;;;5057115;28;20271;-64
2023/06/02 08:11:38;;;;;;;1.67;1.58;;;19.80;99.90;;;;;;5060278;28;20315;-64
2023/06/02 08:14:05;;;;;;;1.83;1.73;;;19.70;99.90;;;;;;5057651;28;20667;-65
2023/06/02 08:16:33;;;;;;;1.90;1.80;;;19.80;99.90;;;;;;5056196;28;20208;-66
2023/06/02 08:19:00;;;;;;;1.60;1.55;;;19.80;99.90;;;;;;5054945;28;20753;-66
2023/06/02 08:21:27;;;;;;;1.48;1.42;;;19.80;99.90;;;;;;5053803;28;20231;-64
2023/06/02 08:23:54;;;;;;;1.63;1.52;;;20.00;99.90;;;;;;5054244;28;20220;-63
2023/06/02 08:26:22;;;;;;;1.60;1.50;;;20.10;99.90;;;;;;5054391;28;20607;-65
2023/06/02 08:28:49;;;;;;;1.77;1.67;;;20.30;99.90;;;;;;5054534;28;20757;-65
2023/06/02 08:31:20;;;;;;;1.92;1.50;;;20.30;99.90;;;;;;5053776;28;20226;-65
2023/06/02 08:33:52;;;;;;;1.63;1.52;;;20.40;99.90;;;;;;5054277;28;20231;-64
2023/06/02 08:36:19;;;;;;;1.70;1.60;;;20.50;99.90;;;;;;5053967;28;20337;-66
2023/06/02 08:38:47;;;;;;;1.52;1.50;;;20.60;99.90;;;;;;5054050;28;20204;-66
2023/06/02 08:41:14;;;;;;;2.90;2.70;;;20.60;99.90;;;;;;5053137;28;20224;-65
2023/06/02 08:43:41;;;;;;;1.70;1.60;;;20.60;99.90;;;;;;5054205;28;20714;-65
2023/06/02 08:46:13;;;;;;;1.52;1.42;;;20.60;99.90;;;;;;5054395;28;20226;-64
2023/06/02 08:48:44;;;;;;;1.88;1.70;;;20.60;99.90;;;;;;5054788;28;20199;-65
2023/06/02 08:51:17;;;;;;;1.70;1.60;;;20.80;99.90;;;;;;5053673;28;20251;-68
2023/06/02 08:53:43;;;;;;;1.83;1.73;;;20.90;99.90;;;;;;5054566;28;20188;-66
2023/06/02 08:56:10;;;;;;;2.00;1.90;;;21.00;99.90;;;;;;5053934;28;20218;-65
2023/06/02 08:58:37;;;;;;;1.60;1.50;;;21.00;99.90;;;;;;5054220;28;20208;-65
2023/06/02 09:01:04;;;;;;;1.63;1.52;;;21.00;99.90;;;;;;5058357;28;20262;-66
2023/06/02 09:03:31;;;;;;;1.80;1.70;;;20.90;99.90;;;;;;5069538;28;20294;-62
2023/06/02 09:05:59;;;;;;;2.30;2.10;;;20.70;99.90;;;;;;5063817;28;20236;-64
2023/06/02 09:08:29;;;;;;;1.90;1.80;;;20.60;99.90;;;;;;5062471;28;20195;-63
2023/06/02 09:10:56;;;;;;;1.40;1.40;;;20.70;99.90;;;;;;5064348;28;20230;-65
2023/06/02 09:13:31;;;;;;;1.75;1.65;;;20.90;99.90;;;;;;5061799;28;20198;-64
2023/06/02 09:15:59;;;;;;;1.60;1.60;;;21.00;99.90;;;;;;5063017;28;20196;-64
2023/06/02 09:18:27;;;;;;;1.50;1.50;;;21.10;99.90;;;;;;5054493;28;20200;-63
2023/06/02 09:20:54;;;;;;;2.30;1.60;;;21.30;99.90;;;;;;5055242;28;20247;-66
2023/06/02 09:23:22;;;;;;;2.00;1.90;;;21.20;99.90;;;;;;5053348;28;20224;-64
2023/06/02 09:25:51;;;;;;;1.77;1.67;;;21.20;99.90;;;;;;5053051;28;20218;-64
2023/06/02 09:28:18;;;;;;;1.50;1.40;;;21.00;99.90;;;;;;5053192;28;20234;-63
2023/06/02 09:30:45;;;;;;;1.60;1.58;;;21.10;99.90;;;;;;5052506;28;20227;-64
2023/06/02 09:33:12;;;;;;;1.90;1.80;;;21.20;99.90;;;;;;5053158;28;20671;-63
2023/06/02 09:35:41;;;;;;;1.70;1.60;;;21.30;99.90;;;;;;5053750;28;20203;-63
2023/06/02 09:38:10;;;;;;;1.63;1.50;;;21.20;99.90;;;;;;5053500;28;20306;-63
2023/06/02 09:40:38;;;;;;;2.33;2.22;;;21.20;99.90;;;;;;5053524;28;20227;-63
2023/06/02 09:43:08;;;;;;;2.55;2.45;;;21.30;99.90;;;;;;5054944;28;20228;-64
2023/06/02 09:45:57;;;;;;;2.85;2.75;;;21.40;99.90;;;;;;5054584;28;20207;-63
2023/06/02 09:48:24;;;;;;;2.10;2.00;;;21.30;99.90;;;;;;5054228;28;20204;-66
2023/06/02 09:50:51;;;;;;;1.92;1.83;;;21.30;99.90;;;;;;5053752;28;20598;-63
2023/06/02 09:53:18;;;;;;;1.40;1.30;;;21.40;99.90;;;;;;5053388;28;20292;-64
2023/06/02 09:55:46;;;;;;;2.00;1.90;;;21.50;99.90;;;;;;5054127;28;20207;-65
2023/06/02 09:58:14;;;;;;;2.30;2.20;;;21.60;99.90;;;;;;5053557;28;20212;-64
2023/06/02 10:00:41;;;;;;;9.63;9.18;;;21.70;99.90;;;;;;5052583;28;20314;-64
2023/06/02 10:03:08;;;;;;;3.25;1.95;;;21.70;99.90;;;;;;5053346;28;20216;-63
2023/06/02 10:05:36;;;;;;;3.08;2.88;;;21.70;99.90;;;;;;5052599;28;20214;-64
2023/06/02 10:08:15;;;;;;;1.83;1.73;;;21.70;99.90;;;;;;5053240;28;20652;-63
2023/06/02 10:11:01;;;;;;;2.10;1.98;;;21.70;99.90;;;;;;5052540;28;20724;-61
2023/06/02 10:13:54;;;;;;;1.75;1.65;;;21.70;99.90;;;;;;5053877;28;20583;-63
2023/06/02 10:16:34;;;;;;;1.67;1.58;;;21.70;99.90;;;;;;5053071;28;20283;-62
2023/06/02 10:19:32;;;;;;;3.65;3.45;;;21.70;99.90;;;;;;5054146;28;20242;-61
2023/06/02 10:22:25;;;;;;;1.75;1.65;;;21.70;99.90;;;;;;5059793;28;20633;-64
2023/06/02 10:25:02;;;;;;;1.55;1.45;;;21.80;99.90;;;;;;5057660;28;20307;-64
2023/06/02 10:27:33;;;;;;;2.08;1.48;;;21.90;99.90;;;;;;5057392;28;20210;-64
2023/06/02 10:30:02;;;;;;;2.30;1.58;;;22.00;99.90;;;;;;5071029;28;20248;-64
2023/06/02 10:32:33;;;;;;;1.60;1.50;;;22.20;99.90;;;;;;5065007;28;20260;-63
2023/06/02 10:35:00;;;;;;;1.95;1.67;;;22.30;99.90;;;;;;5056952;28;20290;-64
2023/06/02 10:37:27;;;;;;;2.80;2.70;;;22.20;99.90;;;;;;5056113;28;20215;-64
2023/06/02 10:39:55;;;;;;;1.98;1.88;;;22.20;99.90;;;;;;5056656;28;20315;-62
2023/06/02 10:42:24;;;;;;;3.53;3.33;;;22.10;99.90;;;;;;5057149;28;20908;-64
2023/06/02 10:44:52;;;;;;;3.13;3.00;;;22.20;99.90;;;;;;5056087;28;20314;-62
2023/06/02 10:47:36;;;;;;;2.03;1.92;;;22.20;99.90;;;;;;5057928;28;20298;-62
2023/06/02 10:50:06;;;;;;;2.63;2.42;;;22.20;99.90;;;;;;5054180;28;20223;-62
2023/06/02 10:52:55;;;;;;;2.00;1.80;;;22.30;99.90;;;;;;5052423;28;20238;-63
2023/06/02 10:55:27;;;;;;;1.95;1.85;;;22.30;99.90;;;;;;5052016;28;20291;-64
2023/06/02 10:57:55;;;;;;;1.85;1.75;;;22.30;99.90;;;;;;5051626;28;20251;-63
2023/06/02 11:00:45;;;;;;;2.17;1.73;;;22.30;99.90;;;;;;5052243;28;20234;-64
2023/06/02 11:03:34;;;;;;;2.28;1.70;;;22.40;99.90;;;;;;5053061;28;20255;-63
2023/06/02 11:06:21;;;;;;;2.55;2.35;;;22.60;99.90;;;;;;5051701;28;20674;-62
2023/06/02 11:08:49;;;;;;;1.60;1.52;;;22.70;99.90;;;;;;5051611;28;20246;-63
2023/06/02 11:11:51;;;;;;;1.88;1.77;;;22.80;99.90;;;;;;5051600;28;20251;-62
2023/06/02 11:14:18;;;;;;;1.90;1.60;;;22.70;99.90;;;;;;5051545;28;20204;-62
2023/06/02 11:16:45;;;;;;;2.70;2.55;;;22.80;99.90;;;;;;5051824;28;20207;-64
2023/06/02 11:19:34;;;;;;;1.77;1.67;;;22.80;99.90;;;;;;5051114;28;20199;-63
2023/06/02 11:22:05;;;;;;;1.98;1.88;;;22.80;99.90;;;;;;5051660;28;20218;-63
2023/06/02 11:24:32;;;;;;;1.70;1.60;;;23.00;99.90;;;;;;5051759;28;20270;-64
2023/06/02 11:26:58;;;;;;;1.60;1.50;;;23.00;99.90;;;;;;5054621;28;20223;-63
2023/06/02 11:29:25;;;;;;;1.85;1.75;;;23.00;99.90;;;;;;5051302;28;20211;-63
2023/06/02 11:31:52;;;;;;;2.88;2.33;;;23.00;99.90;;;;;;5051699;28;20802;-63
2023/06/02 11:34:21;;;;;;;1.48;1.48;;;23.00;99.90;;;;;;5062367;28;20192;-64
2023/06/02 11:36:48;;;;;;;1.70;1.60;;;23.00;99.90;;;;;;5073490;28;20203;-63
2023/06/02 11:39:16;;;;;;;2.40;2.20;;;22.90;99.90;;;;;;5071461;28;20203;-63
2023/06/02 11:41:56;;;;;;;2.15;2.05;;;23.00;99.90;;;;;;5071774;28;20219;-64
2023/06/02 11:44:23;;;;;;;1.65;1.55;;;23.00;99.90;;;;;;5071513;28;20995;-63
2023/06/02 11:46:51;;;;;;;1.70;1.60;;;23.10;99.90;;;;;;5071942;28;20286;-62
2023/06/02 11:49:18;;;;;;;3.05;2.95;;;23.20;99.90;;;;;;5070674;28;20217;-64
2023/06/02 11:51:46;;;;;;;4.03;1.55;;;23.20;99.90;;;;;;5072136;28;20233;-63
2023/06/02 11:54:13;;;;;;;1.65;1.55;;;23.30;99.90;;;;;;5071906;28;20286;-64
2023/06/02 11:56:42;;;;;;;1.90;1.80;;;23.50;99.90;;;;;;5067357;28;20737;-62
2023/06/02 11:59:16;;;;;;;2.17;1.98;;;23.60;99.90;;;;;;5060263;28;20200;-62
2023/06/02 12:01:44;;;;;;;1.77;1.67;;;23.70;99.90;;;;;;5051363;28;20694;-63
2023/06/02 12:04:12;;;;;;;2.45;2.35;;;23.70;99.90;;;;;;5051716;28;20219;-63
2023/06/02 12:06:48;;;;;;;3.03;2.83;;;23.80;99.90;;;;;;5051851;28;20200;-63
2023/06/02 12:09:16;;;;;;;1.65;1.55;;;23.80;99.90;;;;;;5050993;28;20203;-63
2023/06/02 12:11:45;;;;;;;1.67;1.58;;;23.70;99.90;;;;;;5051406;28;20269;-64
2023/06/02 12:14:13;;;;;;;2.05;1.95;;;23.70;99.90;;;;;;5050948;28;20199;-63
2023/06/02 12:16:40;;;;;;;1.75;1.65;;;23.90;99.90;;;;;;5059515;28;20286;-63
2023/06/02 12:19:14;;;;;;;1.85;1.75;;;24.00;99.90;;;;;;5060375;28;20206;-64
2023/06/02 12:21:42;;;;;;;1.65;1.55;;;24.00;99.90;;;;;;5062254;28;20283;-63
2023/06/02 12:24:10;;;;;;;1.83;1.73;;;24.10;99.90;;;;;;5069749;28;20211;-63
2023/06/02 12:26:42;;;;;;;2.22;1.60;;;24.20;99.90;;;;;;5070819;28;20200;-63
2023/06/02 12:29:09;;;;;;;1.65;1.55;;;24.10;99.90;;;;;;5073891;28;20203;-63
2023/06/02 12:31:36;;;;;;;2.30;2.13;;;24.10;99.90;;;;;;5074651;28;20223;-63
2023/06/02 12:34:03;;;;;;;1.85;1.58;;;24.20;99.90;;;;;;5074853;28;20306;-63
2023/06/02 12:36:30;;;;;;;2.42;2.33;;;24.20;99.90;;;;;;5081153;28;20207;-64
2023/06/02 12:38:59;;;;;;;1.55;1.45;;;24.30;99.90;;;;;;5081420;28;20241;-64
2023/06/02 12:41:28;;;;;;;2.03;1.90;;;24.30;99.90;;;;;;5076738;28;20638;-63
2023/06/02 12:43:55;;;;;;;3.78;3.58;;;24.50;99.90;;;;;;5076993;28;20230;-63
2023/06/02 12:46:22;;;;;;;1.73;1.63;;;24.40;99.90;;;;;;5074769;28;20219;-65
2023/06/02 12:48:48;;;;;;;2.28;2.08;;;24.30;99.90;;;;;;5074212;28;20205;-63
2023/06/02 12:51:16;;;;;;;1.77;1.67;;;24.20;99.90;;;;;;5074667;28;20219;-63
2023/06/02 12:53:43;;;;;;;1.33;1.25;;;24.30;99.90;;;;;;5078677;28;20203;-63
2023/06/02 12:56:10;;;;;;;2.00;1.80;;;24.50;99.90;;;;;;5075066;28;20222;-64